createdAt,value
2023-01-21T00:04:40.513Z,34.08
2023-01-21T00:07:08.722Z,36.70
2023-01-21T00:09:36.800Z,36.70
2023-01-21T00:12:05.875Z,36.65
2023-01-21T00:14:33.689Z,37.92
2023-01-21T00:17:01.557Z,35.95
2023-01-21T00:19:29.740Z,36.60
2023-01-21T00:21:57.688Z,37.53
2023-01-21T00:24:25.339Z,39.08
2023-01-21T00:26:53.949Z,39.42
2023-01-21T00:29:22.068Z,40.35
2023-01-21T00:31:50.002Z,42.85
2023-01-21T00:34:18.253Z,41.72
2023-01-21T00:36:47.043Z,46.28
2023-01-21T00:39:14.635Z,46.13
2023-01-21T00:41:42.761Z,43.42
2023-01-21T00:44:10.573Z,46.83
2023-01-21T00:46:40.903Z,45.63
2023-01-21T00:49:08.574Z,48.00
2023-01-21T00:51:36.475Z,48.72
2023-01-21T00:54:03.887Z,49.58
2023-01-21T00:56:31.516Z,47.78
2023-01-21T00:58:59.359Z,49.40
2023-01-21T01:03:38.429Z,48.30
2023-01-21T01:06:10.798Z,48.53
2023-01-21T01:08:38.392Z,46.65
2023-01-21T01:11:06.346Z,46.00
2023-01-21T01:13:34.909Z,47.60
2023-01-21T01:16:03.200Z,45.42
2023-01-21T01:18:32.563Z,44.85
2023-01-21T01:21:02.487Z,44.78
2023-01-21T01:23:32.094Z,42.90
2023-01-21T01:26:01.280Z,41.33
2023-01-21T01:28:29.487Z,39.42
2023-01-21T01:30:57.478Z,40.88
2023-01-21T01:33:25.504Z,39.70
2023-01-21T01:35:53.293Z,37.35
2023-01-21T01:38:23.322Z,38.92
2023-01-21T01:40:52.711Z,36.95
2023-01-21T01:43:21.908Z,37.20
2023-01-21T01:45:49.547Z,35.30
2023-01-21T01:48:21.366Z,38.67
2023-01-21T01:50:49.377Z,37.17
2023-01-21T01:53:18.373Z,36.03
2023-01-21T01:55:47.144Z,35.80
2023-01-21T01:58:15.943Z,34.92
2023-01-21T02:00:43.532Z,34.65
2023-01-21T02:03:30.988Z,36.35
2023-01-21T02:05:58.631Z,33.67
2023-01-21T02:08:27.553Z,34.67
2023-01-21T02:10:56.567Z,36.55
2023-01-21T02:13:25.240Z,36.60
2023-01-21T02:15:55.903Z,35.45
2023-01-21T02:18:43.896Z,35.95
2023-01-21T02:21:30.397Z,35.20
2023-01-21T02:24:20.634Z,35.55
2023-01-21T02:26:48.499Z,34.15
2023-01-21T02:29:18.912Z,35.75
2023-01-21T02:32:05.429Z,34.58
2023-01-21T02:34:51.931Z,35.72
2023-01-21T02:37:19.649Z,33.78
2023-01-21T02:39:50.213Z,34.88
2023-01-21T02:42:17.937Z,33.33
2023-01-21T02:44:51.820Z,34.20
2023-01-21T02:47:19.532Z,34.53
2023-01-21T02:49:51.485Z,32.55
2023-01-21T02:52:26.285Z,32.30
2023-01-21T02:54:55.208Z,33.08
2023-01-21T02:57:25.740Z,33.08
2023-01-21T02:59:54.811Z,32.30
2023-01-21T03:02:22.537Z,33.97
2023-01-21T03:05:04.017Z,33.55
2023-01-21T03:07:34.597Z,31.73
2023-01-21T03:10:21.121Z,33.45
2023-01-21T03:12:48.855Z,31.92
2023-01-21T03:16:04.043Z,31.10
2023-01-21T03:18:37.638Z,29.70
2023-01-21T03:21:07.944Z,30.48
2023-01-21T03:23:37.774Z,31.35
2023-01-21T03:26:06.069Z,30.58
2023-01-21T03:28:35.556Z,31.33
2023-01-21T03:31:08.201Z,30.83
2023-01-21T03:33:38.606Z,31.63
2023-01-21T03:38:36.929Z,27.90
2023-01-21T03:41:16.803Z,30.20
2023-01-21T03:43:44.447Z,29.48
2023-01-21T03:46:16.955Z,30.55
2023-01-21T03:49:23.456Z,30.48
2023-01-21T03:51:54.112Z,29.95
2023-01-21T03:54:21.779Z,29.95
2023-01-21T03:56:49.443Z,29.98
2023-01-21T03:59:17.165Z,30.63
2023-01-21T04:01:44.668Z,30.20
2023-01-21T04:04:12.187Z,30.92
2023-01-21T04:06:39.898Z,29.45
2023-01-21T04:09:07.929Z,29.25
2023-01-21T04:11:35.778Z,28.77
2023-01-21T04:14:03.374Z,30.92
2023-01-21T04:16:30.883Z,30.35
2023-01-21T04:19:01.711Z,30.67
2023-01-21T04:21:29.459Z,33.10
2023-01-21T04:23:57.125Z,29.95
2023-01-21T04:26:24.645Z,32.05
2023-01-21T04:28:52.273Z,30.30
2023-01-21T04:31:19.804Z,30.50
2023-01-21T04:33:47.914Z,30.45
2023-01-21T04:36:15.825Z,30.48
2023-01-21T04:38:43.362Z,30.27
2023-01-21T04:41:11.012Z,29.95
2023-01-21T04:43:38.692Z,30.98
2023-01-21T04:46:06.320Z,32.03
2023-01-21T04:48:35.145Z,33.15
2023-01-21T04:51:12.053Z,32.55
2023-01-21T04:53:40.023Z,30.85
2023-01-21T04:56:07.703Z,32.22
2023-01-21T04:58:35.925Z,32.78
2023-01-21T05:01:07.103Z,31.88
2023-01-21T05:03:34.666Z,31.90
2023-01-21T05:06:02.233Z,31.65
2023-01-21T05:08:30.652Z,32.80
2023-01-21T05:10:58.290Z,33.25
2023-01-21T05:13:25.769Z,32.40
2023-01-21T05:15:53.952Z,33.10
2023-01-21T05:18:21.300Z,32.72
2023-01-21T05:20:48.816Z,31.25
2023-01-21T05:23:17.255Z,33.58
2023-01-21T05:25:44.900Z,32.78
2023-01-21T05:28:13.268Z,32.88
2023-01-21T05:30:43.247Z,32.33
2023-01-21T05:33:12.330Z,32.38
2023-01-21T05:35:39.823Z,31.27
2023-01-21T05:38:07.321Z,31.25
2023-01-21T05:40:35.027Z,33.42
2023-01-21T05:43:02.721Z,33.58
2023-01-21T05:45:30.260Z,32.78
2023-01-21T05:47:57.770Z,31.83
2023-01-21T05:50:25.412Z,35.70
2023-01-21T05:52:53.023Z,33.17
2023-01-21T05:55:20.511Z,31.25
2023-01-21T05:57:47.928Z,33.67
2023-01-21T06:00:17.521Z,32.22
2023-01-21T06:02:45.123Z,34.15
2023-01-21T06:05:13.319Z,34.15
2023-01-21T06:07:40.993Z,33.67
2023-01-21T06:10:09.096Z,35.30
2023-01-21T06:12:36.545Z,33.42
2023-01-21T06:15:04.126Z,36.15
2023-01-21T06:17:31.745Z,35.63
2023-01-21T06:19:59.248Z,33.72
2023-01-21T06:22:27.203Z,35.25
2023-01-21T06:24:54.598Z,36.13
2023-01-21T06:27:22.157Z,37.78
2023-01-21T06:29:49.718Z,37.05
2023-01-21T06:32:17.244Z,37.25
2023-01-21T06:34:46.880Z,36.20
2023-01-21T06:37:14.652Z,38.28
2023-01-21T06:39:41.975Z,37.78
2023-01-21T06:42:09.510Z,37.47
2023-01-21T06:44:37.024Z,38.92
2023-01-21T06:47:04.515Z,35.50
2023-01-21T06:49:32.347Z,38.13
2023-01-21T06:52:00.316Z,36.22
2023-01-21T06:54:30.299Z,36.28
2023-01-21T06:59:25.803Z,36.05
2023-01-21T07:01:53.672Z,38.17
2023-01-21T07:04:22.245Z,37.92
2023-01-21T07:06:50.229Z,37.10
2023-01-21T07:09:18.333Z,38.17
2023-01-21T07:11:46.250Z,38.22
2023-01-21T07:14:13.993Z,38.40
2023-01-21T07:16:41.567Z,39.28
2023-01-21T07:19:10.411Z,38.35
2023-01-21T07:21:38.264Z,37.22
2023-01-21T07:24:08.574Z,38.63
2023-01-21T07:26:38.200Z,37.25
2023-01-21T07:29:06.911Z,37.27
2023-01-21T07:31:34.999Z,36.92
2023-01-21T07:34:04.111Z,38.15
2023-01-21T07:36:31.978Z,37.78
2023-01-21T07:38:59.658Z,38.17
2023-01-21T07:41:27.389Z,37.33
2023-01-21T07:43:55.115Z,37.78
2023-01-21T07:46:23.342Z,38.38
2023-01-21T07:48:51.891Z,37.50
2023-01-21T07:51:24.183Z,36.58
2023-01-21T07:53:51.836Z,37.90
2023-01-21T07:56:20.436Z,36.08
2023-01-21T07:58:48.420Z,36.50
2023-01-21T08:01:16.277Z,37.60
2023-01-21T08:03:44.488Z,37.60
2023-01-21T08:06:12.249Z,36.30
2023-01-21T08:08:39.772Z,36.58
2023-01-21T08:11:07.211Z,36.88
2023-01-21T08:13:34.862Z,36.10
2023-01-21T08:16:02.285Z,38.45
2023-01-21T08:18:29.940Z,37.83
2023-01-21T08:21:00.263Z,36.40
2023-01-21T08:25:55.650Z,37.72
2023-01-21T08:28:23.909Z,36.95
2023-01-21T08:30:52.311Z,36.38
2023-01-21T08:33:19.916Z,39.15
2023-01-21T08:35:48.651Z,36.92
2023-01-21T08:38:16.159Z,40.35
2023-01-21T08:40:43.520Z,42.08
2023-01-21T08:43:11.383Z,39.35
2023-01-21T08:45:39.057Z,40.15
2023-01-21T08:48:06.862Z,38.90
2023-01-21T08:50:34.845Z,37.97
2023-01-21T08:53:04.943Z,41.78
2023-01-21T08:55:32.779Z,39.65
2023-01-21T08:58:00.782Z,40.05
2023-01-21T09:00:28.466Z,37.72
2023-01-21T09:02:56.544Z,40.78
2023-01-21T09:05:24.093Z,39.28
2023-01-21T09:07:51.912Z,39.00
2023-01-21T09:10:42.080Z,40.13
2023-01-21T09:13:10.816Z,39.80
2023-01-21T09:15:40.879Z,41.17
2023-01-21T09:18:08.512Z,41.13
2023-01-21T09:20:36.304Z,40.88
2023-01-21T09:23:24.598Z,39.67
2023-01-21T09:25:55.159Z,39.03
2023-01-21T09:30:57.060Z,39.25
2023-01-21T09:33:25.043Z,39.53
2023-01-21T09:35:56.032Z,38.65
2023-01-21T09:38:24.704Z,37.30
2023-01-21T09:40:52.622Z,39.35
2023-01-21T09:43:23.265Z,37.13
2023-01-21T09:45:52.979Z,39.10
2023-01-21T09:48:28.751Z,37.15
2023-01-21T09:50:57.579Z,36.85
2023-01-21T09:53:28.356Z,37.42
2023-01-21T09:55:58.854Z,38.17
2023-01-21T09:58:31.233Z,37.63
2023-01-21T10:01:02.490Z,37.15
2023-01-21T10:03:33.348Z,37.42
2023-01-21T10:06:27.044Z,40.53
2023-01-21T10:09:06.081Z,37.97
2023-01-21T10:11:56.177Z,36.97
2023-01-21T10:14:29.755Z,35.80
2023-01-21T10:17:00.444Z,36.17
2023-01-21T10:19:33.995Z,36.47
2023-01-21T10:22:05.688Z,37.60
2023-01-21T10:24:38.788Z,36.45
2023-01-21T10:27:06.605Z,34.90
2023-01-21T10:29:37.247Z,35.83
2023-01-21T10:32:07.100Z,35.38
2023-01-21T10:34:48.535Z,35.75
2023-01-21T10:37:38.320Z,33.60
2023-01-21T10:40:09.077Z,37.45
2023-01-21T10:42:49.232Z,37.03
2023-01-21T10:45:38.719Z,37.25
2023-01-21T10:48:28.984Z,37.05
2023-01-21T10:51:02.976Z,35.08
2023-01-21T10:53:30.384Z,33.97
2023-01-21T10:56:00.876Z,37.38
2023-01-21T10:58:38.452Z,35.22
2023-01-21T11:01:07.994Z,33.65
2023-01-21T11:03:41.733Z,33.90
2023-01-21T11:06:12.151Z,32.35
2023-01-21T11:08:41.284Z,32.63
2023-01-21T11:11:09.516Z,33.92
2023-01-21T11:13:36.965Z,34.75
2023-01-21T11:16:05.981Z,33.97
2023-01-21T11:18:37.963Z,31.02
2023-01-21T11:21:25.759Z,32.20
2023-01-21T11:24:05.027Z,31.02
2023-01-21T11:26:34.331Z,30.23
2023-01-21T11:29:14.563Z,29.67
2023-01-21T11:31:43.271Z,30.13
2023-01-21T11:34:15.887Z,29.73
2023-01-21T11:37:02.426Z,27.88
2023-01-21T11:39:32.535Z,28.17
2023-01-21T11:42:08.488Z,30.27
2023-01-21T11:44:54.459Z,26.58
2023-01-21T11:47:38.848Z,25.88
2023-01-21T11:50:13.651Z,26.23
2023-01-21T11:52:41.743Z,26.92
2023-01-21T11:55:26.068Z,27.27
2023-01-21T11:57:57.328Z,27.10
2023-01-21T12:00:27.133Z,24.83
2023-01-21T12:02:59.244Z,24.67
2023-01-21T12:05:33.141Z,24.55
2023-01-21T12:08:01.965Z,25.08
2023-01-21T12:10:30.646Z,24.33
2023-01-21T12:13:06.099Z,24.50
2023-01-21T12:16:03.933Z,25.27
2023-01-21T12:18:34.706Z,24.88
2023-01-21T12:21:02.239Z,24.50
2023-01-21T12:23:32.828Z,24.98
2023-01-21T12:26:19.088Z,24.60
2023-01-21T12:29:03.315Z,23.13
2023-01-21T12:31:43.738Z,22.20
2023-01-21T12:34:22.509Z,20.45
2023-01-21T12:37:13.084Z,22.10
2023-01-21T12:42:17.655Z,21.33
2023-01-21T12:44:48.253Z,22.15
2023-01-21T12:47:42.080Z,21.17
2023-01-21T12:50:21.915Z,20.73
2023-01-21T12:52:49.692Z,22.15
2023-01-21T12:55:23.191Z,20.55
2023-01-21T12:58:11.207Z,21.10
2023-01-21T13:00:40.952Z,19.52
2023-01-21T13:03:27.495Z,20.87
2023-01-21T13:05:55.678Z,20.05
2023-01-21T13:08:42.598Z,20.83
2023-01-21T13:11:19.345Z,20.20
2023-01-21T13:14:10.385Z,19.90
2023-01-21T13:16:59.109Z,19.70
2023-01-21T13:19:27.053Z,20.10
2023-01-21T13:22:03.806Z,21.20
2023-01-21T13:24:44.151Z,19.58
2023-01-21T13:27:30.173Z,18.65
2023-01-21T13:30:04.082Z,20.17
2023-01-21T13:32:34.673Z,19.08
2023-01-21T13:35:02.332Z,19.35
2023-01-21T13:37:31.167Z,20.40
2023-01-21T13:40:00.125Z,19.75
2023-01-21T13:42:44.597Z,20.08
2023-01-21T13:45:20.264Z,19.67
2023-01-21T13:48:10.709Z,19.30
2023-01-21T13:50:38.318Z,20.23
2023-01-21T13:53:08.766Z,18.80
2023-01-21T13:58:09.508Z,19.10
2023-01-21T14:00:52.807Z,18.98
2023-01-21T14:03:28.993Z,19.25
2023-01-21T14:06:09.700Z,19.25
2023-01-21T14:08:53.001Z,19.15
2023-01-21T14:11:37.535Z,18.77
2023-01-21T14:14:23.531Z,18.83
2023-01-21T14:16:57.164Z,18.77
2023-01-21T14:19:24.712Z,19.25
2023-01-21T14:21:59.283Z,18.88
2023-01-21T14:24:30.528Z,19.45
2023-01-21T14:27:07.459Z,19.15
2023-01-21T14:29:56.371Z,19.73
2023-01-21T14:32:28.506Z,20.27
2023-01-21T14:35:14.992Z,20.10
2023-01-21T14:38:05.684Z,20.50
2023-01-21T14:40:47.638Z,20.23
2023-01-21T14:43:31.574Z,19.80
2023-01-21T14:46:00.298Z,20.67
2023-01-21T14:48:32.908Z,20.50
2023-01-21T14:51:07.005Z,20.15
2023-01-21T14:53:47.150Z,19.95
2023-01-21T14:56:26.353Z,20.60
2023-01-21T14:58:58.896Z,21.52
2023-01-21T15:01:31.256Z,20.92
2023-01-21T15:04:00.494Z,21.58
2023-01-21T15:06:28.057Z,21.88
2023-01-21T15:09:00.993Z,22.45
2023-01-21T15:11:31.338Z,22.25
2023-01-21T15:14:02.907Z,20.48
2023-01-21T15:16:39.850Z,21.58
2023-01-21T15:19:11.366Z,23.30
2023-01-21T15:21:43.134Z,22.23
2023-01-21T15:24:18.102Z,21.40
2023-01-21T15:27:06.223Z,20.67
2023-01-21T15:29:39.078Z,22.17
2023-01-21T15:32:20.700Z,21.25
2023-01-21T15:34:50.908Z,21.58
2023-01-21T15:37:21.825Z,19.90
2023-01-21T15:39:53.162Z,21.25
2023-01-21T15:42:28.463Z,21.27
2023-01-21T15:44:56.459Z,20.42
2023-01-21T15:47:36.372Z,20.80
2023-01-21T15:50:19.887Z,20.27
2023-01-21T15:53:07.520Z,19.98
2023-01-21T15:55:54.182Z,21.75
2023-01-21T15:58:42.594Z,21.73
2023-01-21T16:01:17.363Z,21.70
2023-01-21T16:04:08.440Z,21.67
2023-01-21T16:06:35.892Z,21.17
2023-01-21T16:09:07.138Z,20.77
2023-01-21T16:11:43.012Z,20.27
2023-01-21T16:14:17.179Z,21.60
2023-01-21T16:16:52.136Z,20.45
2023-01-21T16:19:21.439Z,21.80
2023-01-21T16:21:51.346Z,19.88
2023-01-21T16:24:21.694Z,20.20
2023-01-21T16:26:49.433Z,20.90
2023-01-21T16:29:17.240Z,20.88
2023-01-21T16:32:00.085Z,21.85
2023-01-21T16:34:37.464Z,22.17
2023-01-21T16:37:11.206Z,20.48
2023-01-21T16:39:39.868Z,19.88
2023-01-21T16:42:08.113Z,19.55
2023-01-21T16:44:36.989Z,20.45
2023-01-21T16:47:05.071Z,20.20
2023-01-21T16:49:34.541Z,19.40
2023-01-21T16:52:03.289Z,20.50
2023-01-21T16:54:32.267Z,19.83
2023-01-21T16:57:05.440Z,18.67
2023-01-21T16:59:33.001Z,18.20
2023-01-21T17:02:00.775Z,20.33
2023-01-21T17:04:29.022Z,19.10
2023-01-21T17:06:56.730Z,20.48
2023-01-21T17:09:27.203Z,19.13
2023-01-21T17:11:55.760Z,18.58
2023-01-21T17:14:28.123Z,18.55
2023-01-21T17:16:57.019Z,18.35
2023-01-21T17:19:34.952Z,18.63
2023-01-21T17:22:32.195Z,17.90
2023-01-21T17:24:59.771Z,18.02
2023-01-21T17:27:27.620Z,17.58
2023-01-21T17:30:15.605Z,18.45
2023-01-21T17:32:43.379Z,18.25
2023-01-21T17:35:16.290Z,20.17
2023-01-21T17:37:47.942Z,18.33
2023-01-21T17:40:34.838Z,18.77
2023-01-21T17:43:14.974Z,18.60
2023-01-21T17:45:48.146Z,18.85
2023-01-21T17:48:21.897Z,21.10
2023-01-21T17:50:49.438Z,19.48
2023-01-21T17:53:22.486Z,18.92
2023-01-21T17:55:57.719Z,21.48
2023-01-21T17:58:44.100Z,19.75
2023-01-21T18:01:11.941Z,21.45
2023-01-21T18:03:40.161Z,19.38
2023-01-21T18:06:13.720Z,20.58
2023-01-21T18:08:41.605Z,21.17
2023-01-21T18:11:09.589Z,20.27
2023-01-21T18:13:38.523Z,20.80
2023-01-21T18:16:06.237Z,21.35
2023-01-21T18:18:34.998Z,22.00
2023-01-21T18:21:03.030Z,20.38
2023-01-21T18:23:31.162Z,20.98
2023-01-21T18:25:59.128Z,20.42
2023-01-21T18:28:28.701Z,21.40
2023-01-21T18:30:57.483Z,20.90
2023-01-21T18:33:25.424Z,20.45
2023-01-21T18:35:53.443Z,21.08
2023-01-21T18:38:27.614Z,20.95
2023-01-21T18:40:55.904Z,21.05
2023-01-21T18:43:23.851Z,20.83
2023-01-21T18:45:53.932Z,21.52
2023-01-21T18:48:23.623Z,20.98
2023-01-21T18:50:54.402Z,20.88
2023-01-21T18:53:22.077Z,21.10
2023-01-21T18:55:51.821Z,20.67
2023-01-21T18:58:19.323Z,21.38
2023-01-21T19:00:47.026Z,21.25
2023-01-21T19:03:16.395Z,20.58
2023-01-21T19:05:48.195Z,21.13
2023-01-21T19:08:17.962Z,20.67
2023-01-21T19:10:45.822Z,20.45
2023-01-21T19:13:13.625Z,22.48
2023-01-21T19:15:42.049Z,20.63
2023-01-21T19:18:13.868Z,21.40
2023-01-21T19:20:41.955Z,21.50
2023-01-21T19:23:17.244Z,20.65
2023-01-21T19:25:55.194Z,21.85
2023-01-21T19:28:27.062Z,21.08
2023-01-21T19:30:55.630Z,20.85
2023-01-21T19:33:23.814Z,20.88
2023-01-21T19:35:53.044Z,22.52
2023-01-21T19:38:21.588Z,21.60
2023-01-21T19:40:51.784Z,21.35
2023-01-21T19:43:23.471Z,21.90
2023-01-21T19:45:51.710Z,22.63
2023-01-21T19:48:24.900Z,22.65
2023-01-21T19:50:52.507Z,22.90
2023-01-21T19:53:24.619Z,23.02
2023-01-21T19:55:52.363Z,22.08
2023-01-21T19:58:21.809Z,20.63
2023-01-21T20:00:49.829Z,22.83
2023-01-21T20:03:19.481Z,21.73
2023-01-21T20:05:48.526Z,21.05
2023-01-21T20:08:19.287Z,22.75
2023-01-21T20:10:47.310Z,23.00
2023-01-21T20:13:15.980Z,24.30
2023-01-21T20:15:44.613Z,23.30
2023-01-21T20:18:18.877Z,23.20
2023-01-21T20:20:47.693Z,23.42
2023-01-21T20:23:16.308Z,23.23
2023-01-21T20:25:44.476Z,24.08
2023-01-21T20:28:21.449Z,23.85
2023-01-21T20:30:50.114Z,24.10
2023-01-21T20:33:19.484Z,23.75
2023-01-21T20:35:51.758Z,23.92
2023-01-21T20:38:42.226Z,24.20
2023-01-21T20:43:37.630Z,22.95
2023-01-21T20:46:06.975Z,25.17
2023-01-21T20:48:36.918Z,25.70
2023-01-21T20:51:04.545Z,26.20
2023-01-21T20:53:32.539Z,24.85
2023-01-21T20:56:03.048Z,24.55
2023-01-21T20:58:31.462Z,25.02
2023-01-21T21:00:58.982Z,23.50
2023-01-21T21:03:27.043Z,24.33
2023-01-21T21:05:55.108Z,22.15
2023-01-21T21:08:23.399Z,23.50
2023-01-21T21:10:55.563Z,23.13
2023-01-21T21:13:23.143Z,23.90
2023-01-21T21:15:51.083Z,22.88
2023-01-21T21:18:18.682Z,23.27
2023-01-21T21:20:47.412Z,24.80
2023-01-21T21:23:18.259Z,23.60
2023-01-21T21:25:47.297Z,22.17
2023-01-21T21:28:16.571Z,24.25
2023-01-21T21:30:44.863Z,22.67
2023-01-21T21:33:21.277Z,23.92
2023-01-21T21:35:49.909Z,22.58
2023-01-21T21:38:21.730Z,23.25
2023-01-21T21:40:53.418Z,23.08
2023-01-21T21:43:38.864Z,22.75
2023-01-21T21:46:26.197Z,23.83
2023-01-21T21:48:54.330Z,22.38
2023-01-21T21:51:22.670Z,22.88
2023-01-21T21:56:58.939Z,23.40
2023-01-21T21:59:26.538Z,24.17
2023-01-21T22:01:54.508Z,23.33
2023-01-21T22:04:23.132Z,23.70
2023-01-21T22:06:50.914Z,22.58
2023-01-21T22:09:18.880Z,22.73
2023-01-21T22:11:47.390Z,23.33
2023-01-21T22:14:16.290Z,23.50
2023-01-21T22:16:45.360Z,24.27
2023-01-21T22:19:13.421Z,23.70
2023-01-21T22:21:41.775Z,24.23
2023-01-21T22:24:10.288Z,23.30
2023-01-21T22:26:38.199Z,22.83
2023-01-21T22:29:06.292Z,22.33
2023-01-21T22:31:34.483Z,21.63
2023-01-21T22:34:05.236Z,23.40
2023-01-21T22:36:32.759Z,23.45
2023-01-21T22:39:00.538Z,23.35
2023-01-21T22:41:28.428Z,23.48
2023-01-21T22:43:56.355Z,22.67
2023-01-21T22:46:25.338Z,21.42
2023-01-21T22:48:54.523Z,22.05
2023-01-21T22:51:23.170Z,21.08
2023-01-21T22:53:52.387Z,22.30
2023-01-21T22:56:22.229Z,21.05
2023-01-21T22:58:51.336Z,21.13
2023-01-21T23:01:22.179Z,20.48
2023-01-21T23:03:49.923Z,19.85
2023-01-21T23:06:18.894Z,19.92
2023-01-21T23:08:47.154Z,21.17
2023-01-21T23:11:16.983Z,21.42
2023-01-21T23:13:53.525Z,20.80
2023-01-21T23:16:21.365Z,21.73
2023-01-21T23:18:49.235Z,20.10
2023-01-21T23:21:18.630Z,20.33
2023-01-21T23:23:46.102Z,20.42
2023-01-21T23:26:14.091Z,21.30
2023-01-21T23:28:41.852Z,21.23
2023-01-21T23:31:17.778Z,21.33
2023-01-21T23:33:47.375Z,19.90
2023-01-21T23:36:15.124Z,21.02
2023-01-21T23:38:45.623Z,20.55
2023-01-21T23:41:14.730Z,21.05
2023-01-21T23:43:42.166Z,21.52
2023-01-21T23:46:14.422Z,20.27
2023-01-21T23:48:41.951Z,20.75
2023-01-21T23:51:12.253Z,18.95
2023-01-21T23:53:40.000Z,20.85
2023-01-21T23:56:10.088Z,20.30
2023-01-21T23:58:37.856Z,20.00
